Time;durP1;ratioP1;P1;durP2;ratioP2;P2;SDS_P1;SDS_P2;PMS_P1;PMS_P2;Temp;Humidity;BMP_temperature;BMP_pressure;BME280_temperature;BME280_humidity;BME280_pressure;Samples;Min_cycle;Max_cycle;Signal;HPM_P1;HPM_P2
2021/03/06 00:00:18;;;;;;;11.77;9.27;;;2.10;99.90;;;2.94;68.62;94960.69;5052656;28;20156;-70
2021/03/06 00:02:44;;;;;;;11.80;8.63;;;2.10;99.90;;;2.91;68.93;94970.75;5052427;28;20175;-69
2021/03/06 00:05:14;;;;;;;10.83;8.90;;;2.10;99.90;;;2.86;68.60;94968.69;5052828;28;20168;-70
2021/03/06 00:07:40;;;;;;;10.83;8.87;;;2.00;99.90;;;2.79;68.28;94975.69;5035527;28;20170;-70
2021/03/06 00:10:13;;;;;;;12.17;10.07;;;2.00;99.90;;;2.78;68.52;94971.47;5035756;28;20623;-69
2021/03/06 00:12:44;;;;;;;10.47;9.23;;;1.90;99.90;;;2.81;68.60;94975.50;5067793;28;20211;-70
2021/03/06 00:15:19;;;;;;;11.00;9.80;;;1.90;99.90;;;2.73;68.93;94976.44;5065642;28;20164;-70
2021/03/06 00:17:45;;;;;;;11.87;9.80;;;1.90;99.90;;;2.72;68.43;94974.03;5048901;28;20187;-69
2021/03/06 00:20:14;;;;;;;12.37;9.80;;;1.90;99.90;;;2.76;68.43;94965.59;5046017;28;20189;-70
2021/03/06 00:22:42;;;;;;;11.13;9.33;;;1.90;99.90;;;2.77;68.22;94974.25;5056153;28;20639;-69
2021/03/06 00:25:14;;;;;;;10.70;9.33;;;1.90;99.90;;;2.67;68.56;94961.50;5033614;28;20252;-69
2021/03/06 00:27:41;;;;;;;10.47;8.87;;;1.90;99.90;;;2.62;68.60;94968.31;5021146;28;20179;-70
2021/03/06 00:30:15;;;;;;;10.07;8.67;;;1.90;99.90;;;2.71;68.36;94970.59;5053105;28;20242;-69
2021/03/06 00:32:40;;;;;;;10.03;8.93;;;1.90;99.90;;;2.69;68.38;94966.53;5084923;28;20200;-69
2021/03/06 00:35:08;;;;;;;10.07;8.93;;;1.80;99.90;;;2.69;68.56;94969.16;5069000;28;20189;-69
2021/03/06 00:37:35;;;;;;;10.20;9.10;;;1.80;99.90;;;2.74;68.24;94975.47;5068840;28;20216;-70
2021/03/06 00:40:03;;;;;;;11.43;10.13;;;1.90;99.90;;;2.68;68.34;94978.03;5051701;28;20183;-70
2021/03/06 00:42:29;;;;;;;10.07;8.80;;;1.90;99.90;;;2.62;68.33;94963.88;5052017;28;20200;-70
2021/03/06 00:44:55;;;;;;;9.27;8.27;;;1.80;99.90;;;2.59;68.67;94974.72;5068495;28;20612;-69
2021/03/06 00:47:21;;;;;;;9.63;8.57;;;1.80;99.90;;;2.67;68.30;94968.53;5050995;28;20195;-69
2021/03/06 00:49:47;;;;;;;9.83;8.37;;;1.80;99.90;;;2.56;68.62;94975.91;5021125;28;20595;-69
2021/03/06 00:52:13;;;;;;;9.33;8.30;;;1.80;99.90;;;2.63;68.94;94965.50;5049568;28;20280;-69
2021/03/06 00:54:39;;;;;;;9.53;8.10;;;1.80;99.90;;;2.56;69.07;94967.25;5036067;28;20390;-69
2021/03/06 00:57:05;;;;;;;9.20;7.70;;;1.80;99.90;;;2.52;68.74;94981.69;5052744;28;20226;-69
2021/03/06 00:59:31;;;;;;;9.43;8.27;;;1.70;99.90;;;2.51;68.15;94969.63;5051726;28;20174;-69
2021/03/06 01:01:57;;;;;;;9.13;8.10;;;1.70;99.90;;;2.43;68.58;94974.97;5051445;28;20256;-69
2021/03/06 01:04:24;;;;;;;10.00;8.27;;;1.70;99.90;;;2.44;68.41;94976.63;5052918;28;20164;-69
2021/03/06 01:06:50;;;;;;;8.47;7.43;;;1.60;99.90;;;2.40;68.72;94973.56;5034576;28;20548;-69
2021/03/06 01:09:16;;;;;;;9.50;8.50;;;1.60;99.90;;;2.38;68.56;94961.69;5033969;28;20188;-69
2021/03/06 01:11:42;;;;;;;10.70;8.30;;;1.60;99.90;;;2.39;68.02;94968.50;5051506;28;20187;-69
2021/03/06 01:14:09;;;;;;;9.07;8.10;;;1.60;99.90;;;2.34;68.90;94960.44;5034502;28;20208;-69
2021/03/06 01:16:35;;;;;;;9.33;8.13;;;1.60;99.90;;;2.39;68.54;94966.69;5051407;28;20208;-69
2021/03/06 01:19:01;;;;;;;8.70;7.67;;;1.60;99.90;;;2.32;68.67;94957.16;5063041;28;20176;-70
2021/03/06 01:21:30;;;;;;;9.03;8.07;;;1.50;99.90;;;2.27;68.54;94967.41;5053458;28;20181;-69
2021/03/06 01:23:58;;;;;;;9.90;8.53;;;1.50;99.90;;;2.31;68.11;94960.81;5051793;28;20179;-69
2021/03/06 01:26:24;;;;;;;8.47;7.27;;;1.50;99.90;;;2.29;68.65;94968.81;5051568;28;20178;-70
2021/03/06 01:28:50;;;;;;;9.50;8.10;;;1.50;99.90;;;2.34;69.03;94963.03;5051224;28;20264;-69
2021/03/06 01:31:16;;;;;;;8.90;7.63;;;1.50;99.90;;;2.27;68.10;94955.13;5042119;28;20287;-70
2021/03/06 01:33:41;;;;;;;12.27;8.63;;;1.50;99.90;;;2.29;67.99;94955.75;5014689;28;20211;-70
2021/03/06 01:36:07;;;;;;;8.43;7.53;;;1.50;99.90;;;2.22;68.01;94954.88;5064633;28;20198;-69
2021/03/06 01:38:35;;;;;;;10.20;7.43;;;1.40;99.90;;;2.19;68.38;94951.81;5031495;28;20185;-70
2021/03/06 01:41:02;;;;;;;9.80;8.57;;;1.40;99.90;;;2.20;68.77;94953.44;5028515;28;20177;-70
2021/03/06 01:43:28;;;;;;;9.70;8.03;;;1.40;99.90;;;2.14;68.05;94959.44;5064062;28;20173;-70
2021/03/06 01:45:54;;;;;;;8.90;7.60;;;1.30;99.90;;;2.05;68.71;94949.09;5047435;28;20195;-70
2021/03/06 01:48:23;;;;;;;9.57;7.90;;;1.30;99.90;;;2.10;68.25;94952.94;5064578;28;20195;-70
2021/03/06 01:50:50;;;;;;;9.40;8.13;;;1.30;99.90;;;1.99;68.19;94955.06;5030758;28;20168;-70
2021/03/06 01:53:16;;;;;;;8.80;7.60;;;1.20;99.90;;;1.91;68.08;94960.44;5045294;28;20193;-70
2021/03/06 01:55:48;;;;;;;8.73;7.47;;;1.10;99.90;;;2.00;68.59;94948.84;5063659;28;20274;-69
2021/03/06 01:58:15;;;;;;;9.33;8.30;;;1.20;99.90;;;1.96;68.51;94942.38;5033811;28;20187;-70
2021/03/06 02:00:42;;;;;;;8.87;7.77;;;1.10;99.90;;;1.89;68.46;94948.50;5034528;28;20270;-70
2021/03/06 02:03:08;;;;;;;9.77;8.07;;;1.10;99.90;;;1.85;68.76;94939.41;5051751;28;20173;-70
2021/03/06 02:05:34;;;;;;;9.60;7.93;;;1.00;99.90;;;1.86;68.23;94939.25;5051903;28;20239;-70
2021/03/06 02:08:01;;;;;;;9.43;8.40;;;1.00;99.90;;;1.81;68.82;94944.25;5051751;28;20168;-70
2021/03/06 02:10:31;;;;;;;9.03;7.83;;;1.00;99.90;;;1.71;67.95;94929.84;5050060;28;20208;-70
2021/03/06 02:13:02;;;;;;;9.80;8.20;;;1.00;99.90;;;1.68;69.05;94949.28;5046992;28;20194;-70
2021/03/06 02:15:43;;;;;;;9.53;8.00;;;0.90;99.90;;;1.71;68.47;94945.53;5031907;28;20167;-70
2021/03/06 02:19:07;;;;;;;8.40;7.40;;;0.90;99.90;;;1.86;68.40;94948.88;5031334;28;20161;-70
2021/03/06 02:22:34;;;;;;;9.67;8.67;;;1.00;99.90;;;1.74;68.95;94942.53;4978425;28;20198;-70
2021/03/06 02:25:19;;;;;;;9.57;8.03;;;1.00;99.90;;;1.68;68.55;94941.44;5008771;28;20740;-70
2021/03/06 02:28:06;;;;;;;9.20;8.17;;;0.90;99.90;;;1.72;68.05;94944.50;5009423;28;20174;-70
2021/03/06 02:30:33;;;;;;;9.37;8.17;;;0.90;99.90;;;1.66;68.56;94935.63;4989301;28;20300;-69
2021/03/06 02:33:01;;;;;;;9.23;8.27;;;0.80;99.90;;;1.53;68.99;94931.06;4956734;28;20225;-70
2021/03/06 02:35:32;;;;;;;10.60;9.10;;;0.80;99.90;;;1.47;68.51;94942.25;4973657;28;20265;-70
2021/03/06 02:38:07;;;;;;;10.97;9.37;;;0.80;99.90;;;1.53;68.36;94943.31;4956867;28;20824;-70
2021/03/06 02:40:36;;;;;;;9.73;8.53;;;0.70;99.90;;;1.53;68.55;94928.44;4973486;28;20173;-70
2021/03/06 02:43:04;;;;;;;10.03;8.47;;;0.70;99.90;;;1.54;68.28;94939.72;4973125;28;20411;-70
2021/03/06 02:45:36;;;;;;;10.13;9.07;;;0.70;99.90;;;1.51;68.83;94940.84;4982396;28;20204;-70
2021/03/06 02:48:02;;;;;;;11.73;9.63;;;0.70;99.90;;;1.49;68.83;94934.22;4976649;28;20189;-70
2021/03/06 02:50:28;;;;;;;10.83;8.57;;;0.70;99.90;;;1.60;68.65;94936.34;4992831;28;20197;-69
2021/03/06 02:52:57;;;;;;;10.60;8.47;;;0.80;99.90;;;1.61;68.85;94947.63;4989285;28;20709;-69
2021/03/06 02:55:23;;;;;;;10.47;8.07;;;0.80;99.90;;;1.68;68.99;94936.22;5006122;28;20182;-70
2021/03/06 02:58:16;;;;;;;11.33;8.57;;;0.80;99.90;;;1.62;68.49;94928.31;5002403;28;20248;-70
2021/03/06 03:00:53;;;;;;;10.43;8.50;;;0.80;99.90;;;1.69;68.15;94942.25;5035988;28;20195;-69
2021/03/06 03:03:25;;;;;;;9.93;8.13;;;0.80;99.90;;;1.57;68.09;94938.53;5033101;28;20204;-69
2021/03/06 03:06:21;;;;;;;9.33;7.93;;;0.80;99.90;;;1.68;69.03;94936.22;5066824;28;20563;-69
2021/03/06 03:09:10;;;;;;;10.80;8.43;;;0.90;99.90;;;1.65;68.07;94936.59;5066411;28;20181;-69
2021/03/06 03:11:59;;;;;;;11.23;9.27;;;0.80;99.90;;;1.65;69.30;94941.00;5033064;28;20170;-69
2021/03/06 03:14:57;;;;;;;11.27;8.60;;;0.80;99.90;;;1.62;68.25;94936.16;5032041;28;20563;-70
2021/03/06 03:17:26;;;;;;;10.53;8.27;;;0.80;99.90;;;1.50;68.56;94939.25;5048391;28;20197;-69
2021/03/06 03:20:14;;;;;;;10.57;8.90;;;0.70;99.90;;;1.57;68.78;94943.75;5031427;28;20575;-69
2021/03/06 03:22:47;;;;;;;10.17;8.70;;;0.70;99.90;;;1.70;68.65;94933.44;4999182;28;20198;-69
2021/03/06 03:25:14;;;;;;;11.00;8.63;;;0.80;99.90;;;1.62;68.50;94938.75;5012044;28;20207;-70
2021/03/06 03:27:43;;;;;;;9.40;8.23;;;0.80;99.90;;;1.53;69.02;94931.06;5011690;28;20190;-70
2021/03/06 03:30:14;;;;;;;11.00;8.57;;;0.80;99.90;;;1.63;68.92;94935.16;5009324;28;20189;-70
2021/03/06 03:32:44;;;;;;;10.77;8.30;;;0.80;99.90;;;1.59;69.31;94934.72;5027787;28;20163;-69
2021/03/06 03:35:14;;;;;;;9.03;8.10;;;0.80;99.90;;;1.57;68.70;94933.31;5028436;28;20287;-69
2021/03/06 03:37:43;;;;;;;10.57;8.57;;;0.70;99.90;;;1.57;69.07;94931.50;5028100;28;20177;-69
2021/03/06 03:40:14;;;;;;;10.00;7.80;;;0.80;99.90;;;1.59;68.82;94928.69;5028222;28;20173;-69
2021/03/06 03:42:40;;;;;;;10.57;8.63;;;0.80;99.90;;;1.63;69.10;94935.97;5028835;28;20171;-69
2021/03/06 03:45:15;;;;;;;9.53;8.50;;;0.80;99.90;;;1.59;68.96;94926.91;5007903;28;20660;-70
2021/03/06 03:47:42;;;;;;;9.33;7.30;;;0.80;99.90;;;1.59;68.79;94929.50;5004617;28;20193;-69
2021/03/06 03:50:11;;;;;;;10.27;8.20;;;0.80;99.90;;;1.59;69.35;94934.72;5043092;28;20262;-69
2021/03/06 03:52:46;;;;;;;9.87;8.10;;;0.80;99.90;;;1.58;68.33;94927.09;5011064;28;20188;-69
2021/03/06 03:55:12;;;;;;;10.27;8.00;;;0.80;99.90;;;1.56;69.29;94922.03;5032043;28;20193;-70
2021/03/06 03:57:40;;;;;;;9.30;7.70;;;0.80;99.90;;;1.54;69.01;94924.03;5034594;28;20177;-69
2021/03/06 04:00:09;;;;;;;8.53;7.47;;;0.80;99.90;;;1.52;68.40;94918.97;5049340;28;20229;-70
2021/03/06 04:02:36;;;;;;;8.97;7.87;;;0.80;99.90;;;1.55;68.99;94916.00;5066245;28;20176;-69
2021/03/06 04:05:05;;;;;;;9.77;8.00;;;0.80;99.90;;;1.57;68.51;94918.44;5033043;28;20176;-70
2021/03/06 04:07:52;;;;;;;9.50;8.20;;;0.80;99.90;;;1.64;69.31;94927.16;5066185;28;20617;-69
2021/03/06 04:10:21;;;;;;;9.87;8.37;;;0.80;99.90;;;1.64;69.22;94916.72;5033144;28;20599;-69
2021/03/06 04:12:48;;;;;;;10.30;7.87;;;0.90;99.90;;;1.64;69.34;94926.34;5016320;28;20695;-70
2021/03/06 04:15:20;;;;;;;10.87;8.57;;;0.90;99.90;;;1.60;69.05;94925.91;5035989;28;20188;-69
2021/03/06 04:17:47;;;;;;;8.53;7.63;;;0.80;99.90;;;1.56;69.11;94929.88;5033567;28;20180;-70
2021/03/06 04:20:21;;;;;;;9.53;8.47;;;0.80;99.90;;;1.59;68.44;94932.13;5053858;28;20191;-69
2021/03/06 04:22:48;;;;;;;10.17;8.27;;;0.80;99.90;;;1.58;69.44;94935.72;5032307;28;20242;-70
2021/03/06 04:25:16;;;;;;;9.07;8.07;;;0.80;99.90;;;1.55;68.57;94928.25;5049220;28;20209;-70
2021/03/06 04:27:42;;;;;;;9.27;8.10;;;0.70;99.90;;;1.53;68.89;94935.47;5065854;28;20616;-69
2021/03/06 04:30:11;;;;;;;10.27;9.17;;;0.80;99.90;;;1.58;68.31;94932.31;5034682;28;20185;-69
2021/03/06 04:32:38;;;;;;;12.33;8.57;;;0.80;99.90;;;1.61;69.24;94937.97;5052182;28;20195;-70
2021/03/06 04:35:07;;;;;;;9.40;8.40;;;0.80;99.90;;;1.63;68.61;94935.16;5086136;28;20184;-69
2021/03/06 04:37:33;;;;;;;10.10;8.47;;;0.80;99.90;;;1.67;69.06;94945.09;5085118;28;20619;-70
2021/03/06 04:39:59;;;;;;;10.37;8.40;;;0.80;99.90;;;1.70;69.19;94949.13;5053497;28;20182;-70
2021/03/06 04:42:28;;;;;;;12.67;9.13;;;0.80;99.90;;;1.73;69.26;94949.56;5069012;28;20728;-69
2021/03/06 04:44:54;;;;;;;10.07;8.30;;;0.80;99.90;;;1.70;68.73;94947.31;5051318;28;20286;-69
2021/03/06 04:47:23;;;;;;;13.73;8.67;;;0.90;99.90;;;1.83;69.21;94959.72;5051861;28;20259;-70
2021/03/06 04:49:54;;;;;;;10.70;8.10;;;0.90;99.90;;;1.80;68.96;94944.41;5035960;28;20180;-69
2021/03/06 04:52:20;;;;;;;10.13;8.50;;;1.00;99.90;;;1.71;69.10;94946.34;5044567;28;20196;-70
2021/03/06 04:54:47;;;;;;;11.30;8.40;;;0.90;99.90;;;1.66;69.34;94950.47;5055109;28;20187;-70
2021/03/06 04:57:13;;;;;;;13.43;9.97;;;0.90;99.90;;;1.64;68.77;94944.63;5073043;28;20743;-69
2021/03/06 04:59:40;;;;;;;11.60;9.57;;;0.90;99.90;;;1.59;69.18;94944.38;5035650;28;20191;-69
2021/03/06 05:02:06;;;;;;;10.23;8.17;;;0.80;99.90;;;1.51;69.01;94940.06;5035064;28;20176;-69
2021/03/06 05:04:33;;;;;;;10.30;8.90;;;0.80;99.90;;;1.59;68.81;94955.63;5051865;28;20277;-69
2021/03/06 05:07:01;;;;;;;11.27;8.67;;;0.80;99.90;;;1.61;68.92;94951.03;5063278;28;20323;-69
2021/03/06 05:09:27;;;;;;;10.57;9.07;;;0.80;99.90;;;1.61;69.32;94943.22;5044728;28;20246;-69
2021/03/06 05:11:56;;;;;;;11.80;9.53;;;0.80;99.90;;;1.68;69.12;94951.91;5051078;28;20202;-69
2021/03/06 05:14:24;;;;;;;11.10;9.17;;;0.90;99.90;;;1.63;69.28;94941.22;5052160;28;20554;-69
2021/03/06 05:16:54;;;;;;;10.67;9.07;;;0.80;99.90;;;1.63;69.35;94951.66;5051841;28;20164;-69
2021/03/06 05:19:22;;;;;;;9.83;8.83;;;0.90;99.90;;;1.63;69.34;94946.44;5051528;28;20165;-69
2021/03/06 05:21:50;;;;;;;10.87;8.90;;;0.80;99.90;;;1.61;68.98;94945.00;5063842;28;20551;-69
2021/03/06 05:24:16;;;;;;;10.73;9.30;;;0.80;99.90;;;1.61;69.01;94939.78;5051786;28;20197;-68
2021/03/06 05:26:42;;;;;;;10.93;9.10;;;0.80;99.90;;;1.68;68.84;94949.28;5050619;28;20690;-70
2021/03/06 05:29:08;;;;;;;11.60;10.00;;;0.80;99.90;;;1.67;68.53;94947.69;5068163;28;20509;-70
2021/03/06 05:31:34;;;;;;;10.90;8.93;;;0.80;99.90;;;1.55;68.98;94936.91;5038582;28;20579;-69
2021/03/06 05:34:00;;;;;;;10.43;9.27;;;0.80;99.90;;;1.62;68.96;94941.38;5014641;28;20255;-69
2021/03/06 05:36:25;;;;;;;10.97;9.03;;;0.80;99.90;;;1.59;68.83;94939.94;5049184;28;20172;-69
2021/03/06 05:38:52;;;;;;;11.13;9.63;;;0.80;99.90;;;1.54;69.49;94937.09;5050736;28;20188;-69
2021/03/06 05:41:21;;;;;;;11.60;9.67;;;0.80;99.90;;;1.49;68.66;94939.44;5051374;28;20188;-69
2021/03/06 05:43:47;;;;;;;11.30;10.10;;;0.70;99.90;;;1.39;68.86;94933.69;5067136;28;20230;-69
2021/03/06 05:46:14;;;;;;;11.30;9.17;;;0.60;99.90;;;1.41;69.38;94934.34;5047650;28;20250;-69
2021/03/06 05:48:40;;;;;;;10.93;9.40;;;0.60;99.90;;;1.38;69.16;94921.63;5014756;28;20202;-69
2021/03/06 05:51:07;;;;;;;10.77;8.87;;;0.60;99.90;;;1.43;68.66;94938.38;5031127;28;20642;-69
2021/03/06 05:53:34;;;;;;;11.70;9.80;;;0.60;99.90;;;1.40;69.00;94927.47;5047498;28;20351;-69
2021/03/06 05:56:03;;;;;;;11.00;9.50;;;0.60;99.90;;;1.36;69.56;94924.44;5031211;28;20168;-69
2021/03/06 05:58:31;;;;;;;10.03;8.87;;;0.60;99.90;;;1.32;69.37;94933.59;5059451;28;20193;-69
2021/03/06 06:01:01;;;;;;;12.03;10.30;;;0.60;99.90;;;1.30;69.21;94940.00;5036299;28;20187;-69
2021/03/06 06:03:27;;;;;;;12.30;10.20;;;0.50;99.90;;;1.25;69.48;94944.94;5032210;28;20168;-69
2021/03/06 06:05:53;;;;;;;12.37;10.00;;;0.40;99.90;;;1.26;69.11;94933.53;5030416;28;20176;-69
2021/03/06 06:08:20;;;;;;;12.27;10.13;;;0.50;99.90;;;1.26;68.99;94943.97;5047183;28;20204;-69
2021/03/06 06:10:46;;;;;;;12.13;10.27;;;0.50;99.90;;;1.33;69.33;94947.47;5034458;28;20246;-69
2021/03/06 06:13:13;;;;;;;16.73;10.90;;;0.50;99.90;;;1.37;69.54;94953.97;5058793;28;20200;-69
2021/03/06 06:15:41;;;;;;;11.60;9.87;;;0.60;99.90;;;1.43;69.03;94946.22;5050405;28;20185;-69
2021/03/06 06:18:10;;;;;;;11.63;9.80;;;0.70;99.90;;;1.50;69.62;94944.50;5050629;28;20168;-69
2021/03/06 06:20:38;;;;;;;12.27;10.33;;;0.70;99.90;;;1.57;69.68;94939.34;5034046;28;20176;-69
2021/03/06 06:23:16;;;;;;;10.90;9.67;;;0.70;99.90;;;1.71;68.90;94954.19;5034321;28;20184;-69
2021/03/06 06:25:47;;;;;;;11.53;9.83;;;0.80;99.90;;;1.80;68.98;94960.91;5037278;28;20198;-69
2021/03/06 06:28:13;;;;;;;13.60;10.73;;;0.90;99.90;;;1.76;68.79;94959.66;5087284;28;20169;-69
2021/03/06 06:30:39;;;;;;;11.00;9.70;;;1.00;99.90;;;1.81;68.92;94962.53;5061433;28;20216;-69
2021/03/06 06:33:05;;;;;;;12.23;9.70;;;1.00;99.90;;;1.82;69.69;94969.34;5051455;28;20238;-69
2021/03/06 06:35:42;;;;;;;11.93;10.53;;;1.00;99.90;;;2.00;69.42;94968.94;5049540;28;20282;-70
2021/03/06 06:38:10;;;;;;;10.77;9.60;;;1.20;99.90;;;2.10;69.32;94968.63;5045770;28;20195;-69
2021/03/06 06:40:39;;;;;;;11.43;9.63;;;1.20;99.90;;;2.14;70.02;94969.88;5054523;28;20202;-69
2021/03/06 06:43:25;;;;;;;11.47;9.70;;;1.30;99.90;;;2.18;68.98;94986.81;5047819;28;20190;-69
2021/03/06 06:45:52;;;;;;;11.10;9.43;;;1.40;99.90;;;2.20;69.74;94983.03;5061888;28;20590;-69
2021/03/06 06:48:18;;;;;;;11.30;9.73;;;1.40;99.90;;;2.21;69.00;94974.19;5049526;28;20180;-69
2021/03/06 06:50:48;;;;;;;11.30;10.10;;;1.40;99.90;;;2.28;70.02;94982.91;5046298;28;20640;-69
2021/03/06 06:53:24;;;;;;;12.10;9.80;;;1.50;99.90;;;2.35;69.95;94982.97;5048384;28;20247;-69
2021/03/06 06:55:51;;;;;;;11.00;9.60;;;1.60;99.90;;;2.57;69.32;94992.41;5066486;28;20176;-69
2021/03/06 06:58:17;;;;;;;9.97;8.97;;;1.70;99.90;;;2.59;69.92;94975.53;5057605;28;20203;-69
2021/03/06 07:00:46;;;;;;;10.67;9.30;;;1.80;99.90;;;2.69;69.55;94985.66;5063001;28;20691;-69
2021/03/06 07:03:21;;;;;;;11.57;9.70;;;1.90;99.90;;;2.76;70.02;94983.91;5065307;28;20181;-69
2021/03/06 07:05:47;;;;;;;10.40;9.37;;;2.00;99.90;;;2.80;69.82;94985.16;5027613;28;20697;-69
2021/03/06 07:08:28;;;;;;;10.03;9.03;;;2.00;99.90;;;3.05;69.16;95006.50;5065191;28;20199;-68
2021/03/06 07:10:54;;;;;;;10.77;9.67;;;2.20;99.90;;;2.96;69.90;94987.47;5026035;28;20261;-69
2021/03/06 07:13:20;;;;;;;11.50;9.67;;;2.20;99.90;;;3.08;69.18;95001.69;5061079;28;20221;-70
2021/03/06 07:15:56;;;;;;;10.17;9.07;;;2.30;99.90;;;3.24;69.72;95005.00;5068756;28;20650;-69
2021/03/06 07:18:24;;;;;;;10.57;9.47;;;2.50;99.90;;;3.40;69.83;94988.97;5049016;28;20219;-69
2021/03/06 07:20:53;;;;;;;12.87;9.70;;;2.60;99.90;;;3.67;69.28;95005.63;5069558;28;20192;-68
2021/03/06 07:23:26;;;;;;;9.70;8.67;;;2.80;99.90;;;3.58;69.37;94986.66;5089013;28;20195;-69
2021/03/06 07:25:59;;;;;;;9.87;8.90;;;3.00;99.90;;;3.60;69.94;95000.34;5063108;28;21094;-68
2021/03/06 07:28:25;;;;;;;11.97;9.07;;;3.00;99.90;;;3.70;69.79;95013.09;5068671;28;20176;-69
2021/03/06 07:30:57;;;;;;;11.00;9.77;;;3.00;99.90;;;3.49;69.13;95014.03;5053146;28;20227;-68
2021/03/06 07:33:26;;;;;;;10.67;9.57;;;3.00;99.90;;;3.83;68.99;95011.34;5056447;28;20208;-69
2021/03/06 07:35:54;;;;;;;11.07;9.60;;;3.10;99.90;;;4.08;69.77;95003.78;5052326;28;20176;-69
2021/03/06 07:38:25;;;;;;;11.57;10.03;;;3.40;99.90;;;4.50;69.33;95021.06;5051669;28;20195;-69
2021/03/06 07:40:57;;;;;;;11.03;9.80;;;3.70;99.90;;;4.67;69.64;95003.88;5049237;28;20220;-69
2021/03/06 07:43:31;;;;;;;9.80;8.80;;;4.00;99.90;;;4.63;69.72;95007.94;5069118;28;20192;-69
2021/03/06 07:45:59;;;;;;;9.73;8.80;;;4.00;99.90;;;4.76;69.82;95009.78;5067563;28;20316;-69
2021/03/06 07:48:37;;;;;;;11.00;9.90;;;4.10;99.90;;;4.69;69.62;95020.28;5035632;28;20199;-69
2021/03/06 07:51:04;;;;;;;10.87;9.77;;;4.10;99.90;;;4.92;69.36;95020.69;5026425;28;20686;-69
2021/03/06 07:53:31;;;;;;;11.07;9.43;;;4.30;99.90;;;5.00;69.29;95012.59;5049997;28;20209;-69
2021/03/06 07:55:57;;;;;;;11.03;9.93;;;4.40;99.90;;;5.03;69.64;95009.59;5027930;28;20189;-69
2021/03/06 07:58:25;;;;;;;10.60;9.50;;;4.50;99.90;;;5.12;69.66;95018.88;5052831;28;20533;-69
2021/03/06 08:00:57;;;;;;;10.83;9.73;;;4.70;99.90;;;5.15;69.56;95009.75;5052679;28;20708;-69
2021/03/06 08:03:26;;;;;;;10.77;9.57;;;4.70;99.90;;;5.31;69.61;95019.03;5027373;28;20403;-69
2021/03/06 08:05:58;;;;;;;10.23;9.13;;;4.80;99.90;;;5.38;69.19;95035.59;5035123;28;20172;-69
2021/03/06 08:08:34;;;;;;;10.30;9.30;;;5.00;99.90;;;5.40;69.21;95012.56;5052852;28;20168;-69
2021/03/06 08:11:19;;;;;;;10.13;9.10;;;5.10;99.90;;;5.23;69.41;95029.78;5069503;28;20199;-70
2021/03/06 08:13:49;;;;;;;11.00;9.90;;;4.90;99.90;;;5.08;69.47;95016.84;5069586;28;20210;-69
2021/03/06 08:16:27;;;;;;;11.87;10.60;;;4.70;99.90;;;5.27;69.25;95028.34;5035894;28;20267;-69
2021/03/06 08:19:00;;;;;;;10.90;9.80;;;4.80;99.90;;;5.05;69.07;95031.19;5050413;28;20194;-69
2021/03/06 08:21:31;;;;;;;11.60;10.23;;;4.60;99.90;;;5.05;69.30;95040.88;5036183;28;20239;-69
2021/03/06 08:24:21;;;;;;;10.63;9.53;;;4.60;99.90;;;5.10;69.16;95049.75;5053122;28;20175;-69
2021/03/06 08:27:03;;;;;;;11.13;9.93;;;4.60;99.90;;;5.36;69.13;95027.13;5046288;28;20650;-69
2021/03/06 08:29:29;;;;;;;10.00;9.00;;;4.80;99.90;;;5.54;69.11;95043.88;5051687;28;20189;-69
2021/03/06 08:32:01;;;;;;;10.87;9.73;;;4.90;99.90;;;5.57;69.17;95047.94;5053221;28;20215;-70
2021/03/06 08:34:36;;;;;;;10.63;9.60;;;5.00;99.90;;;5.37;69.10;95034.78;5053078;28;20208;-69
2021/03/06 08:40:18;;;;;;;11.10;10.00;;;5.00;99.90;;;6.09;69.40;95065.41;5050826;28;20590;-70
2021/03/06 08:42:51;;;;;;;10.47;9.47;;;5.30;99.90;;;6.29;69.17;95062.69;5080053;28;20206;-69
2021/03/06 08:45:29;;;;;;;10.73;9.70;;;5.60;99.90;;;6.42;69.33;95044.22;5048184;28;20192;-69
2021/03/06 08:48:05;;;;;;;11.70;10.53;;;5.80;99.90;;;6.63;69.20;95059.69;5052538;28;20182;-69
2021/03/06 08:50:35;;;;;;;10.70;9.70;;;6.00;99.90;;;6.86;68.82;95064.41;5044756;28;20213;-69
2021/03/06 08:53:12;;;;;;;10.33;9.33;;;6.20;99.90;;;7.08;68.88;95057.81;5048690;28;20202;-69
2021/03/06 08:55:40;;;;;;;10.07;9.10;;;6.40;99.90;;;7.34;68.94;95056.78;5034752;28;20179;-69
2021/03/06 08:58:10;;;;;;;10.23;9.20;;;6.70;99.90;;;7.36;68.50;95039.72;5031681;28;20217;-69
2021/03/06 09:00:41;;;;;;;10.73;9.63;;;6.90;99.90;;;7.38;68.59;95031.59;5050269;28;20199;-69
2021/03/06 09:03:27;;;;;;;10.83;9.67;;;7.00;99.90;;;7.47;69.14;95054.03;5066850;28;20527;-69
2021/03/06 09:05:58;;;;;;;10.17;9.17;;;7.10;99.90;;;7.57;68.23;95049.06;5051859;28;20194;-69
2021/03/06 09:08:27;;;;;;;10.27;9.30;;;7.20;99.90;;;7.68;68.94;95054.44;5034090;28;20692;-69
2021/03/06 09:11:00;;;;;;;11.23;9.93;;;7.40;99.90;;;8.07;68.55;95061.13;5050757;28;20278;-69
2021/03/06 09:13:30;;;;;;;10.33;9.33;;;7.70;99.90;;;7.71;68.92;95069.84;5049774;28;20214;-69
2021/03/06 09:16:06;;;;;;;11.23;10.13;;;7.50;99.90;;;7.82;68.99;95059.59;5050957;28;20540;-69
2021/03/06 09:18:38;;;;;;;11.63;9.47;;;7.60;99.90;;;7.35;68.38;95022.28;5067167;28;20182;-67
2021/03/06 09:21:13;;;;;;;10.40;9.40;;;7.30;99.90;;;7.16;68.03;95063.59;5067925;28;20172;-68
2021/03/06 09:23:44;;;;;;;11.03;9.93;;;7.00;99.90;;;7.19;68.34;95044.72;5047132;28;20186;-67
2021/03/06 09:26:16;;;;;;;10.50;9.50;;;7.00;99.90;;;6.88;67.99;95039.50;5033507;28;20194;-68
2021/03/06 09:28:47;;;;;;;10.70;9.70;;;6.80;99.90;;;6.66;67.98;95056.63;5038207;28;20302;-68
2021/03/06 09:31:16;;;;;;;11.03;9.93;;;6.50;99.90;;;6.56;68.39;95053.66;5034436;28;20293;-67
2021/03/06 09:33:43;;;;;;;11.33;10.23;;;6.30;99.90;;;6.76;67.76;95062.25;5047708;28;20663;-67
2021/03/06 09:36:17;;;;;;;11.17;10.07;;;6.40;99.90;;;7.08;67.36;95070.97;5047972;28;20199;-67
2021/03/06 09:38:50;;;;;;;11.10;10.10;;;6.60;99.90;;;7.32;68.34;95058.84;5044537;28;20207;-67
2021/03/06 09:41:24;;;;;;;11.60;10.40;;;6.80;99.90;;;7.25;68.01;95072.06;5035402;28;20231;-67
2021/03/06 09:43:57;;;;;;;11.43;9.67;;;6.80;99.90;;;7.16;67.51;95045.16;5055902;28;20187;-67
2021/03/06 09:46:27;;;;;;;11.30;10.10;;;6.80;99.90;;;7.42;67.94;95069.69;5051013;28;20180;-67
2021/03/06 09:49:00;;;;;;;11.33;10.23;;;6.90;99.90;;;7.72;68.08;95058.22;5051513;28;20187;-68
2021/03/06 09:51:51;;;;;;;10.67;9.67;;;7.20;99.90;;;7.93;67.23;95072.84;5050097;28;20217;-67
2021/03/06 09:54:21;;;;;;;12.57;11.27;;;7.40;99.90;;;7.88;67.66;95048.97;5047298;28;20257;-68
2021/03/06 09:56:56;;;;;;;11.33;10.20;;;7.50;99.90;;;8.01;67.85;95074.41;5070821;28;20187;-67
2021/03/06 09:59:25;;;;;;;11.60;10.50;;;7.60;99.90;;;8.05;67.62;95071.13;5049954;28;20232;-67
2021/03/06 10:01:52;;;;;;;11.50;10.40;;;7.60;99.90;;;7.86;67.90;95074.75;5045119;28;20536;-67
2021/03/06 10:04:24;;;;;;;11.53;10.43;;;7.50;99.90;;;7.98;68.26;95054.53;5080243;28;20202;-68
2021/03/06 10:06:53;;;;;;;11.63;10.53;;;7.60;99.90;;;7.89;66.97;95055.06;5031557;28;20198;-68
2021/03/06 10:09:21;;;;;;;11.73;10.53;;;7.50;99.90;;;7.77;67.12;95068.16;5031280;28;20210;-68
2021/03/06 10:11:57;;;;;;;12.17;10.77;;;7.50;99.90;;;8.12;67.20;95065.75;5047507;28;20192;-68
2021/03/06 10:14:26;;;;;;;11.73;10.63;;;7.70;99.90;;;8.47;67.61;95065.97;5046486;28;20210;-68
2021/03/06 10:16:56;;;;;;;11.70;10.60;;;8.10;99.90;;;8.57;67.44;95063.59;5050957;28;20184;-68
2021/03/06 10:19:53;;;;;;;12.07;10.77;;;8.20;99.90;;;8.44;67.21;95085.72;5030328;28;20199;-68
2021/03/06 10:22:21;;;;;;;11.57;10.47;;;8.20;99.90;;;8.53;67.39;95062.44;5032146;28;20193;-68
2021/03/06 10:24:58;;;;;;;13.00;10.17;;;8.30;99.90;;;8.62;66.78;95074.31;5064890;28;20188;-68
2021/03/06 10:27:36;;;;;;;10.70;9.70;;;8.50;99.90;;;8.51;67.02;95077.72;5075306;28;20203;-68
2021/03/06 10:30:18;;;;;;;11.27;10.17;;;8.40;99.90;;;8.40;66.63;95062.59;5065205;28;20227;-68
2021/03/06 10:32:53;;;;;;;10.73;9.73;;;8.20;99.90;;;8.48;66.90;95073.69;5042173;28;20199;-68
2021/03/06 10:35:56;;;;;;;10.77;9.77;;;8.20;99.90;;;8.87;66.58;95063.59;5050042;28;20189;-68
2021/03/06 10:38:29;;;;;;;10.77;9.63;;;8.50;99.90;;;8.80;67.24;95037.25;5053817;28;20694;-68
2021/03/06 10:41:04;;;;;;;10.83;9.83;;;8.60;99.90;;;9.10;67.11;95069.75;5049477;28;20180;-67
2021/03/06 10:43:43;;;;;;;10.50;9.50;;;8.70;99.90;;;8.74;67.16;95069.88;5058616;28;20164;-68
2021/03/06 10:46:17;;;;;;;10.60;9.60;;;8.60;99.90;;;8.83;66.32;95073.03;5044586;28;20168;-67